Pagrindinis puslapis
METAR-TAF:

METAR-TAF

Oro uostai :

Sinop, Turkija

platuma: 42-00-57N, ilguma: 035-03-59E, Aukštis: 7 m

Dabartinis oras

Ataskaita buvo paskelbta 17 valandos ir 23 minutes, ne 07:50 UTC
Vėjas 5 kt iš Vakarų/Pietvakarių, svyruoja nuo Pietvakarių ir Vakarų
Temperatūra 20°C
Drėgmė 49%
Slėgis 1015 hPa
Matomumas 10 km arba daugiau
Mažai debesys ne aukštis 3300 ft
Išsisklaidę debesys ne aukštis 10000 ft

METAR: LTCM 310750Z 24005KT 220V280 9999 FEW033 SCT100 20/09 Q1015

Laikas: 04:13 (01:13 UTC)

Prognozė

Ataskaita buvo paskelbta 8 valandos ir 33 minutes, ne 16:40 UTC
Prognozė galioja nuo 31 metu 18 UTC su 01 metu 03 UTC
Vėjas 2 kt nuo kintamojo kryptimis
Matomumas 10 km arba daugiau
Mažai debesys ne aukštis 3300 ft
Su prošvaistėmis ne aukštis 9000 ft

TAF: LTCM 311640Z 3118/0103 VRB02KT 9999 FEW033 BKN090

Orai ataskaitas ir orų prognozės (METAR, TAF).

turimą stotys yra geltonos ir raudonos taškus žemėlapyje.

Perkelti pele per norėdami pamatyti stoties vardą.

Tada spustelėkite, norėdami matyti oro stebėjimo ir prognozės.

Norėdami pakeisti žemėlapį: spustelėkite ant žalios mygtukų su juodo kryžiaus žemyn,; žalią mygtuką su brūkšneliu, jei norite nutolinti; arba žalių rodyklių gretimoms žemėlapius.


METAR-TAF: